Time;durP1;ratioP1;P1;durP2;ratioP2;P2;SDS_P1;SDS_P2;PMS_P1;PMS_P2;Temp;Humidity;BMP_temperature;BMP_pressure;BME280_temperature;BME280_humidity;BME280_pressure;Samples;Min_cycle;Max_cycle;Signal;HPM_P1;HPM_P2
2022/07/27 00:02:23;;;;;;;;;;;;;;;;;;4995842;28;19984;-43
2022/07/27 00:04:49;;;;;;;;;;;;;;;;;;4998827;28;19910;-43
2022/07/27 00:07:15;;;;;;;;;;;;;;;;;;5008697;28;19955;-43
2022/07/27 00:09:41;;;;;;;;;;;;;;;;;;5008152;28;19940;-43
2022/07/27 00:12:07;;;;;;;;;;;;;;;;;;5004361;28;20339;-43
2022/07/27 00:14:33;;;;;;;;;;;;;;;;;;5008261;28;19976;-42
2022/07/27 00:16:59;;;;;;;;;;;;;;;;;;5008550;28;19917;-43
2022/07/27 00:19:25;;;;;;;;;;;;;;;;;;5008091;28;19913;-44
2022/07/27 00:21:50;;;;;;;;;;;;;;;;;;4998556;28;19989;-42
2022/07/27 00:24:16;;;;;;;;;;;;;;;;;;5005645;28;20076;-45
2022/07/27 00:26:42;;;;;;;;;;;;;;;;;;5007996;28;19910;-43
2022/07/27 00:29:08;;;;;;;;;;;;;;;;;;5008390;28;19913;-43
2022/07/27 00:31:34;;;;;;;;;;;;;;;;;;4991726;28;20013;-43
2022/07/27 00:34:00;;;;;;;;;;;;;;;;;;4988393;28;19945;-45
2022/07/27 00:36:26;;;;;;;;;;;;;;;;;;4988579;28;19936;-45
2022/07/27 00:38:52;;;;;;;;;;;;;;;;;;4988574;28;19967;-42
2022/07/27 00:41:18;;;;;;;;;;;;;;;;;;4988608;28;19914;-43
2022/07/27 00:43:44;;;;;;;;;;;;;;;;;;4987984;28;19910;-43
2022/07/27 00:46:10;;;;;;;;;;;;;;;;;;4988656;28;19910;-42
2022/07/27 00:48:36;;;;;;;;;;;;;;;;;;4988025;28;19916;-44
2022/07/27 00:51:02;;;;;;;;;;;;;;;;;;4987301;28;20038;-43
2022/07/27 00:53:28;;;;;;;;;;;;;;;;;;4988048;28;19914;-44
2022/07/27 00:55:54;;;;;;;;;;;;;;;;;;4987893;28;19917;-44
2022/07/27 00:58:20;;;;;;;;;;;;;;;;;;4988867;28;20001;-43
2022/07/27 01:00:45;;;;;;;;;;;;;;;;;;4987363;28;19920;-43
2022/07/27 01:03:12;;;;;;;;;;;;;;;;;;4987756;28;19929;-42
2022/07/27 01:05:38;;;;;;;;;;;;;;;;;;4987721;28;19921;-43
2022/07/27 01:08:04;;;;;;;;;;;;;;;;;;4987740;28;19914;-44
2022/07/27 01:10:30;;;;;;;;;;;;;;;;;;4987689;28;19987;-43
2022/07/27 01:12:56;;;;;;;;;;;;;;;;;;4987564;28;20449;-44
2022/07/27 01:15:21;;;;;;;;;;;;;;;;;;4988567;28;19918;-43
2022/07/27 01:17:47;;;;;;;;;;;;;;;;;;4988174;28;19918;-43
2022/07/27 01:20:13;;;;;;;;;;;;;;;;;;4987451;28;19913;-43
2022/07/27 01:22:39;;;;;;;;;;;;;;;;;;5007100;28;19932;-43
2022/07/27 01:25:05;;;;;;;;;;;;;;;;;;5007080;28;19941;-42
2022/07/27 01:27:31;;;;;;;;;;;;;;;;;;5006894;28;19914;-42
2022/07/27 01:29:57;;;;;;;;;;;;;;;;;;5002772;28;20000;-42
2022/07/27 01:32:23;;;;;;;;;;;;;;;;;;4988928;28;19917;-43
2022/07/27 01:34:49;;;;;;;;;;;;;;;;;;4987861;28;19916;-46
2022/07/27 01:37:15;;;;;;;;;;;;;;;;;;4987393;28;19952;-43
2022/07/27 01:39:41;;;;;;;;;;;;;;;;;;5002426;28;19917;-44
2022/07/27 01:42:07;;;;;;;;;;;;;;;;;;5006372;28;20004;-44
2022/07/27 01:44:33;;;;;;;;;;;;;;;;;;5002744;28;19917;-43
2022/07/27 01:46:59;;;;;;;;;;;;;;;;;;5007164;28;19910;-46
2022/07/27 01:49:25;;;;;;;;;;;;;;;;;;5005616;28;19949;-42
2022/07/27 01:51:50;;;;;;;;;;;;;;;;;;4991576;28;19957;-44
2022/07/27 01:54:17;;;;;;;;;;;;;;;;;;4987147;28;19914;-43
2022/07/27 01:56:43;;;;;;;;;;;;;;;;;;4986738;28;19917;-43
2022/07/27 01:59:09;;;;;;;;;;;;;;;;;;4987032;28;19921;-43
2022/07/27 02:01:35;;;;;;;;;;;;;;;;;;4986549;28;19945;-44
2022/07/27 02:04:01;;;;;;;;;;;;;;;;;;4998277;28;19914;-42
2022/07/27 02:06:26;;;;;;;;;;;;;;;;;;5010898;28;19913;-42
2022/07/27 02:08:52;;;;;;;;;;;;;;;;;;5010826;28;19995;-42
2022/07/27 02:14:03;;;;;;;;;;;;;;;;;;5009508;28;20393;-43
2022/07/27 02:16:29;;;;;;;;;;;;;;;;;;5011090;28;19910;-44
2022/07/27 02:18:55;;;;;;;;;;;;;;;;;;5010610;28;19916;-45
2022/07/27 02:21:21;;;;;;;;;;;;;;;;;;5010467;28;19910;-45
2022/07/27 02:23:47;;;;;;;;;;;;;;;;;;5003784;28;20000;-43
2022/07/27 02:26:13;;;;;;;;;;;;;;;;;;4989653;28;19925;-42
2022/07/27 02:28:39;;;;;;;;;;;;;;;;;;4990691;28;19918;-42
2022/07/27 02:31:04;;;;;;;;;;;;;;;;;;4992407;28;19914;-43
2022/07/27 02:33:30;;;;;;;;;;;;;;;;;;5007778;28;19913;-43
2022/07/27 02:35:57;;;;;;;;;;;;;;;;;;4990654;28;19909;-42
2022/07/27 02:38:23;;;;;;;;;;;;;;;;;;5009640;28;20637;-44
2022/07/27 02:40:48;;;;;;;;;;;;;;;;;;5010759;28;20362;-43
2022/07/27 02:43:14;;;;;;;;;;;;;;;;;;5010344;28;19910;-43
2022/07/27 02:45:40;;;;;;;;;;;;;;;;;;5010240;28;19980;-43
2022/07/27 02:48:06;;;;;;;;;;;;;;;;;;4998557;28;19914;-42
2022/07/27 02:50:32;;;;;;;;;;;;;;;;;;4990473;28;19972;-43
2022/07/27 02:52:58;;;;;;;;;;;;;;;;;;4994784;28;20362;-44
2022/07/27 02:55:24;;;;;;;;;;;;;;;;;;4990330;28;19910;-43
2022/07/27 02:57:50;;;;;;;;;;;;;;;;;;4990599;28;19929;-43
2022/07/27 03:00:16;;;;;;;;;;;;;;;;;;4991138;28;19929;-44
2022/07/27 03:02:42;;;;;;;;;;;;;;;;;;4997537;28;19918;-43
2022/07/27 03:05:08;;;;;;;;;;;;;;;;;;5000451;28;19973;-41
2022/07/27 03:07:34;;;;;;;;;;;;;;;;;;5000319;28;19914;-44
2022/07/27 03:10:00;;;;;;;;;;;;;;;;;;4999472;28;19914;-42
2022/07/27 03:12:26;;;;;;;;;;;;;;;;;;4990559;28;19933;-45
2022/07/27 03:14:52;;;;;;;;;;;;;;;;;;4992981;28;19920;-42
2022/07/27 03:17:18;;;;;;;;;;;;;;;;;;5006359;28;20023;-44
2022/07/27 03:19:44;;;;;;;;;;;;;;;;;;5009480;28;19964;-42
2022/07/27 03:22:10;;;;;;;;;;;;;;;;;;5009914;28;19909;-43
2022/07/27 03:24:36;;;;;;;;;;;;;;;;;;5000709;28;19914;-42
2022/07/27 03:27:02;;;;;;;;;;;;;;;;;;4990359;28;20446;-44
2022/07/27 03:29:28;;;;;;;;;;;;;;;;;;5005287;28;19925;-42
2022/07/27 03:31:55;;;;;;;;;;;;;;;;;;4992117;28;19948;-43
2022/07/27 03:34:21;;;;;;;;;;;;;;;;;;5009931;28;19909;-43
2022/07/27 03:36:47;;;;;;;;;;;;;;;;;;4996919;28;19914;-43
2022/07/27 03:39:13;;;;;;;;;;;;;;;;;;5007344;28;19913;-43
2022/07/27 03:41:39;;;;;;;;;;;;;;;;;;4987600;28;19922;-42
2022/07/27 03:44:05;;;;;;;;;;;;;;;;;;4987098;28;19913;-43
2022/07/27 03:46:31;;;;;;;;;;;;;;;;;;4995924;28;19975;-42
2022/07/27 03:48:57;;;;;;;;;;;;;;;;;;4991228;28;19914;-43
2022/07/27 03:51:23;;;;;;;;;;;;;;;;;;4988970;28;19914;-42
2022/07/27 03:53:50;;;;;;;;;;;;;;;;;;4988392;28;19914;-43
2022/07/27 03:56:16;;;;;;;;;;;;;;;;;;4987580;28;19916;-43
2022/07/27 03:58:43;;;;;;;;;;;;;;;;;;4986999;28;19920;-42
2022/07/27 04:01:09;;;;;;;;;;;;;;;;;;4987275;28;19914;-42
2022/07/27 04:03:34;;;;;;;;;;;;;;;;;;4987289;28;20406;-42
2022/07/27 04:06:01;;;;;;;;;;;;;;;;;;4988200;28;19910;-43
2022/07/27 04:08:27;;;;;;;;;;;;;;;;;;4987721;28;19938;-43
2022/07/27 04:10:53;;;;;;;;;;;;;;;;;;4987350;28;20041;-42
2022/07/27 04:13:20;;;;;;;;;;;;;;;;;;4988269;28;20228;-42
2022/07/27 04:15:46;;;;;;;;;;;;;;;;;;4987154;28;20001;-43
2022/07/27 04:18:12;;;;;;;;;;;;;;;;;;4987555;28;20017;-42
2022/07/27 04:20:38;;;;;;;;;;;;;;;;;;4987303;28;19924;-44
2022/07/27 04:23:04;;;;;;;;;;;;;;;;;;4987803;28;19914;-41
2022/07/27 04:25:30;;;;;;;;;;;;;;;;;;4986660;28;19909;-43
2022/07/27 04:27:55;;;;;;;;;;;;;;;;;;4986577;28;20288;-43
2022/07/27 04:30:22;;;;;;;;;;;;;;;;;;4987956;28;19921;-43
2022/07/27 04:32:47;;;;;;;;;;;;;;;;;;4987157;28;19914;-45
2022/07/27 04:35:14;;;;;;;;;;;;;;;;;;4987250;28;19932;-42
2022/07/27 04:37:40;;;;;;;;;;;;;;;;;;4986868;28;20402;-42
2022/07/27 04:40:07;;;;;;;;;;;;;;;;;;4987147;28;19913;-44
2022/07/27 04:42:33;;;;;;;;;;;;;;;;;;4985520;28;20354;-43
2022/07/27 04:44:59;;;;;;;;;;;;;;;;;;4986897;28;20008;-42
2022/07/27 04:47:25;;;;;;;;;;;;;;;;;;4986885;28;19910;-43
2022/07/27 04:49:51;;;;;;;;;;;;;;;;;;4987576;28;19949;-42
2022/07/27 04:52:17;;;;;;;;;;;;;;;;;;4987160;28;19949;-44
2022/07/27 04:54:44;;;;;;;;;;;;;;;;;;4986502;28;19922;-43
2022/07/27 04:57:10;;;;;;;;;;;;;;;;;;4986854;28;19916;-42
2022/07/27 04:59:36;;;;;;;;;;;;;;;;;;4986325;28;20302;-42
2022/07/27 05:02:02;;;;;;;;;;;;;;;;;;4986603;28;19917;-44
2022/07/27 05:04:28;;;;;;;;;;;;;;;;;;4986565;28;19913;-42
2022/07/27 05:06:54;;;;;;;;;;;;;;;;;;4986271;28;19913;-42
2022/07/27 05:09:20;;;;;;;;;;;;;;;;;;4987398;28;19910;-44
2022/07/27 05:11:46;;;;;;;;;;;;;;;;;;4985996;28;19965;-44
2022/07/27 05:14:12;;;;;;;;;;;;;;;;;;4986657;28;20187;-43
2022/07/27 05:16:39;;;;;;;;;;;;;;;;;;4986092;28;19909;-42
2022/07/27 05:19:05;;;;;;;;;;;;;;;;;;4986512;28;19910;-42
2022/07/27 05:21:32;;;;;;;;;;;;;;;;;;4986519;28;19976;-42
2022/07/27 05:23:58;;;;;;;;;;;;;;;;;;4986309;28;19918;-44
2022/07/27 05:26:24;;;;;;;;;;;;;;;;;;4986395;28;19932;-43
2022/07/27 05:28:51;;;;;;;;;;;;;;;;;;4986540;28;19918;-42
2022/07/27 05:31:17;;;;;;;;;;;;;;;;;;4986162;28;19925;-42
2022/07/27 05:33:43;;;;;;;;;;;;;;;;;;4985873;28;20406;-43
2022/07/27 05:36:09;;;;;;;;;;;;;;;;;;4986214;28;19949;-40
2022/07/27 05:38:38;;;;;;;;;;;;;;;;;;4989732;28;19917;-41
2022/07/27 05:41:04;;;;;;;;;;;;;;;;;;5000963;28;20456;-40
2022/07/27 05:43:30;;;;;;;;;;;;;;;;;;5004246;28;20402;-40
2022/07/27 05:45:56;;;;;;;;;;;;;;;;;;4994473;28;19919;-40
2022/07/27 05:48:22;;;;;;;;;;;;;;;;;;5007544;28;19913;-41
2022/07/27 05:50:48;;;;;;;;;;;;;;;;;;5007256;28;20016;-40
2022/07/27 05:53:13;;;;;;;;;;;;;;;;;;5007003;28;19921;-41
2022/07/27 05:55:39;;;;;;;;;;;;;;;;;;5006457;28;19918;-40
2022/07/27 05:58:05;;;;;;;;;;;;;;;;;;5006577;28;20453;-40
2022/07/27 06:00:31;;;;;;;;;;;;;;;;;;5006094;28;19917;-41
2022/07/27 06:02:57;;;;;;;;;;;;;;;;;;4987389;28;19940;-41
2022/07/27 06:05:23;;;;;;;;;;;;;;;;;;4987301;28;20350;-40
2022/07/27 06:07:59;;;;;;;;;;;;;;;;;;4987875;28;19914;-41
2022/07/27 06:10:25;;;;;;;;;;;;;;;;;;4991410;28;20388;-40
2022/07/27 06:12:51;;;;;;;;;;;;;;;;;;4987637;28;19913;-41
2022/07/27 06:15:18;;;;;;;;;;;;;;;;;;4988839;28;19917;-41
2022/07/27 06:17:45;;;;;;;;;;;;;;;;;;5006685;28;20579;-40
2022/07/27 06:20:12;;;;;;;;;;;;;;;;;;5000842;28;20338;-41
2022/07/27 06:22:38;;;;;;;;;;;;;;;;;;4985551;28;19920;-40
2022/07/27 06:25:04;;;;;;;;;;;;;;;;;;4985679;28;19914;-41
2022/07/27 06:27:30;;;;;;;;;;;;;;;;;;4984773;28;19925;-40
2022/07/27 06:29:56;;;;;;;;;;;;;;;;;;5004972;28;19925;-41
2022/07/27 06:32:21;;;;;;;;;;;;;;;;;;5004592;28;19910;-41
2022/07/27 06:34:47;;;;;;;;;;;;;;;;;;5004857;28;19917;-40
2022/07/27 06:37:13;;;;;;;;;;;;;;;;;;5003243;28;19910;-40
2022/07/27 06:39:39;;;;;;;;;;;;;;;;;;5005901;28;20402;-41
2022/07/27 06:42:07;;;;;;;;;;;;;;;;;;5005879;28;19913;-40
2022/07/27 06:44:33;;;;;;;;;;;;;;;;;;4998666;28;19959;-41
2022/07/27 06:46:59;;;;;;;;;;;;;;;;;;4989770;28;19929;-40
2022/07/27 06:49:26;;;;;;;;;;;;;;;;;;4985959;28;19913;-40
2022/07/27 06:51:52;;;;;;;;;;;;;;;;;;4992948;28;19920;-42
2022/07/27 06:54:18;;;;;;;;;;;;;;;;;;5010063;28;20016;-40
2022/07/27 06:56:44;;;;;;;;;;;;;;;;;;5007296;28;19910;-41
2022/07/27 06:59:10;;;;;;;;;;;;;;;;;;5003021;28;20650;-40
2022/07/27 07:01:36;;;;;;;;;;;;;;;;;;5000619;28;19925;-41
2022/07/27 07:04:02;;;;;;;;;;;;;;;;;;4997379;28;19914;-41
2022/07/27 07:06:28;;;;;;;;;;;;;;;;;;5009825;28;19940;-41
2022/07/27 07:08:54;;;;;;;;;;;;;;;;;;5007088;28;19914;-41
2022/07/27 07:11:20;;;;;;;;;;;;;;;;;;5010489;28;20008;-40
2022/07/27 07:13:47;;;;;;;;;;;;;;;;;;5008912;28;19910;-41
2022/07/27 07:16:13;;;;;;;;;;;;;;;;;;4996964;28;19913;-40
2022/07/27 07:18:39;;;;;;;;;;;;;;;;;;5005040;28;19921;-41
2022/07/27 07:21:05;;;;;;;;;;;;;;;;;;4989441;28;19910;-40
2022/07/27 07:23:31;;;;;;;;;;;;;;;;;;4988103;28;20375;-41
2022/07/27 07:25:57;;;;;;;;;;;;;;;;;;4995838;28;19917;-40
2022/07/27 07:28:23;;;;;;;;;;;;;;;;;;5008446;28;19918;-40
2022/07/27 07:30:50;;;;;;;;;;;;;;;;;;5008256;28;19933;-41
2022/07/27 07:33:16;;;;;;;;;;;;;;;;;;4998587;28;19917;-40
2022/07/27 07:35:42;;;;;;;;;;;;;;;;;;5007885;28;20355;-40
2022/07/27 07:38:08;;;;;;;;;;;;;;;;;;5008917;28;19917;-41
2022/07/27 07:40:34;;;;;;;;;;;;;;;;;;5010146;28;19964;-41
2022/07/27 07:43:00;;;;;;;;;;;;;;;;;;5008300;28;19913;-41
2022/07/27 07:45:26;;;;;;;;;;;;;;;;;;4999576;28;19918;-41
2022/07/27 07:47:52;;;;;;;;;;;;;;;;;;5008572;28;20008;-40
2022/07/27 07:50:18;;;;;;;;;;;;;;;;;;5010865;28;19917;-40
2022/07/27 07:52:44;;;;;;;;;;;;;;;;;;5009294;28;19920;-40
2022/07/27 07:55:10;;;;;;;;;;;;;;;;;;4997060;28;20024;-41
2022/07/27 07:57:36;;;;;;;;;;;;;;;;;;4990158;28;19941;-40
2022/07/27 08:00:02;;;;;;;;;;;;;;;;;;4990250;28;20398;-40
2022/07/27 08:02:28;;;;;;;;;;;;;;;;;;4990397;28;19913;-40
2022/07/27 08:04:54;;;;;;;;;;;;;;;;;;4989618;28;20268;-40
2022/07/27 08:07:20;;;;;;;;;;;;;;;;;;4990619;28;19914;-41
2022/07/27 08:09:46;;;;;;;;;;;;;;;;;;4989624;28;20008;-41
2022/07/27 08:12:12;;;;;;;;;;;;;;;;;;5001030;28;20008;-41
2022/07/27 08:14:38;;;;;;;;;;;;;;;;;;5009590;28;20001;-40
2022/07/27 08:17:04;;;;;;;;;;;;;;;;;;5009618;28;19910;-42
2022/07/27 08:19:30;;;;;;;;;;;;;;;;;;5009516;28;19914;-41
2022/07/27 08:21:56;;;;;;;;;;;;;;;;;;5009674;28;19924;-41
2022/07/27 08:24:22;;;;;;;;;;;;;;;;;;5009931;28;19906;-40
2022/07/27 08:26:48;;;;;;;;;;;;;;;;;;5009414;28;19921;-41
2022/07/27 08:29:14;;;;;;;;;;;;;;;;;;5009412;28;20055;-41
2022/07/27 08:31:40;;;;;;;;;;;;;;;;;;5007659;28;20500;-41
2022/07/27 08:34:06;;;;;;;;;;;;;;;;;;5005066;28;19928;-42
2022/07/27 08:36:32;;;;;;;;;;;;;;;;;;5009195;28;19909;-42
2022/07/27 08:39:03;;;;;;;;;;;;;;;;;;5008226;28;20076;-41
2022/07/27 08:41:29;;;;;;;;;;;;;;;;;;5007781;28;20270;-42
2022/07/27 08:43:56;;;;;;;;;;;;;;;;;;5007035;28;19952;-41
2022/07/27 08:46:22;;;;;;;;;;;;;;;;;;5001208;28;19914;-42
2022/07/27 08:48:48;;;;;;;;;;;;;;;;;;4997627;28;19914;-42
2022/07/27 08:51:14;;;;;;;;;;;;;;;;;;4990912;28;19918;-41
2022/07/27 08:53:40;;;;;;;;;;;;;;;;;;4995994;28;19964;-41
2022/07/27 08:56:06;;;;;;;;;;;;;;;;;;4994069;28;20387;-42
2022/07/27 08:58:32;;;;;;;;;;;;;;;;;;4991369;28;19953;-42
2022/07/27 09:00:58;;;;;;;;;;;;;;;;;;4988413;28;20305;-41
2022/07/27 09:03:24;;;;;;;;;;;;;;;;;;4988260;28;19909;-41
2022/07/27 09:05:50;;;;;;;;;;;;;;;;;;4987867;28;19996;-42
2022/07/27 09:08:15;;;;;;;;;;;;;;;;;;4988087;28;19910;-41
2022/07/27 09:10:42;;;;;;;;;;;;;;;;;;4987854;28;19940;-42
2022/07/27 09:13:08;;;;;;;;;;;;;;;;;;4987302;28;20350;-42
2022/07/27 09:15:34;;;;;;;;;;;;;;;;;;4988479;28;19910;-42
2022/07/27 09:18:00;;;;;;;;;;;;;;;;;;4988286;28;19914;-42
2022/07/27 09:20:26;;;;;;;;;;;;;;;;;;4988107;28;19913;-41
2022/07/27 09:22:52;;;;;;;;;;;;;;;;;;4987569;28;20001;-42
2022/07/27 09:25:18;;;;;;;;;;;;;;;;;;4988000;28;19918;-42
2022/07/27 09:27:48;;;;;;;;;;;;;;;;;;4987544;28;20407;-42
2022/07/27 09:30:15;;;;;;;;;;;;;;;;;;4987510;28;19914;-42
2022/07/27 09:32:41;;;;;;;;;;;;;;;;;;4988248;28;19921;-42
2022/07/27 09:35:07;;;;;;;;;;;;;;;;;;4988586;28;20283;-41
2022/07/27 09:37:32;;;;;;;;;;;;;;;;;;4988982;28;19910;-43
2022/07/27 09:39:58;;;;;;;;;;;;;;;;;;4988710;28;19949;-42
2022/07/27 09:42:24;;;;;;;;;;;;;;;;;;4988206;28;19980;-43
2022/07/27 09:44:50;;;;;;;;;;;;;;;;;;4988329;28;19910;-42
2022/07/27 09:47:16;;;;;;;;;;;;;;;;;;4992843;28;20008;-42
2022/07/27 09:49:42;;;;;;;;;;;;;;;;;;5007211;28;19936;-42
2022/07/27 09:52:08;;;;;;;;;;;;;;;;;;5008096;28;19917;-42
2022/07/27 09:54:34;;;;;;;;;;;;;;;;;;5008591;28;19910;-42
2022/07/27 09:57:00;;;;;;;;;;;;;;;;;;5007822;28;19967;-43
2022/07/27 09:59:26;;;;;;;;;;;;;;;;;;5007955;28;19913;-42
2022/07/27 10:01:52;;;;;;;;;;;;;;;;;;5007948;28;19914;-44
2022/07/27 10:04:18;;;;;;;;;;;;;;;;;;4995941;28;19925;-42
2022/07/27 10:06:44;;;;;;;;;;;;;;;;;;4994106;28;19914;-43
2022/07/27 10:09:10;;;;;;;;;;;;;;;;;;4998917;28;19920;-43
2022/07/27 10:11:35;;;;;;;;;;;;;;;;;;5005968;28;19976;-42
2022/07/27 10:14:01;;;;;;;;;;;;;;;;;;5007263;28;20268;-42
2022/07/27 10:16:28;;;;;;;;;;;;;;;;;;4997573;28;19960;-43
2022/07/27 10:18:54;;;;;;;;;;;;;;;;;;4986896;28;19910;-43
2022/07/27 10:21:20;;;;;;;;;;;;;;;;;;4987379;28;19910;-43
2022/07/27 10:23:46;;;;;;;;;;;;;;;;;;4990425;28;19917;-43
2022/07/27 10:26:12;;;;;;;;;;;;;;;;;;5009097;28;20051;-42
2022/07/27 10:28:39;;;;;;;;;;;;;;;;;;5008929;28;20651;-45
2022/07/27 10:31:05;;;;;;;;;;;;;;;;;;4998296;28;20314;-42
2022/07/27 10:33:32;;;;;;;;;;;;;;;;;;5010983;28;19913;-42
2022/07/27 10:36:01;;;;;;;;;;;;;;;;;;4994191;28;19924;-42
2022/07/27 10:38:26;;;;;;;;;;;;;;;;;;5002071;28;20003;-44
2022/07/27 10:40:52;;;;;;;;;;;;;;;;;;4990623;28;20383;-42
2022/07/27 10:43:18;;;;;;;;;;;;;;;;;;4990750;28;19960;-42
2022/07/27 10:45:44;;;;;;;;;;;;;;;;;;4999536;28;20479;-43
2022/07/27 10:48:10;;;;;;;;;;;;;;;;;;5005093;28;19918;-42
2022/07/27 10:50:36;;;;;;;;;;;;;;;;;;4992691;28;19921;-42
2022/07/27 10:53:02;;;;;;;;;;;;;;;;;;4994946;28;20394;-44
2022/07/27 10:55:29;;;;;;;;;;;;;;;;;;5008859;28;19968;-46
2022/07/27 10:57:56;;;;;;;;;;;;;;;;;;5009722;28;19917;-45
2022/07/27 11:00:21;;;;;;;;;;;;;;;;;;5008991;28;19924;-45
2022/07/27 11:02:47;;;;;;;;;;;;;;;;;;4991102;28;19922;-48
2022/07/27 11:05:14;;;;;;;;;;;;;;;;;;5006112;28;19917;-47
2022/07/27 11:07:40;;;;;;;;;;;;;;;;;;5009342;28;19925;-46
2022/07/27 11:10:06;;;;;;;;;;;;;;;;;;5006380;28;19917;-49
2022/07/27 11:12:32;;;;;;;;;;;;;;;;;;4994102;28;20060;-49
2022/07/27 11:14:58;;;;;;;;;;;;;;;;;;4995354;28;19921;-48
2022/07/27 11:17:24;;;;;;;;;;;;;;;;;;4999728;28;20505;-45
2022/07/27 11:19:50;;;;;;;;;;;;;;;;;;5007802;28;20011;-47
2022/07/27 11:22:16;;;;;;;;;;;;;;;;;;4998754;28;19989;-49
2022/07/27 11:24:42;;;;;;;;;;;;;;;;;;4990990;28;19938;-45
2022/07/27 11:27:08;;;;;;;;;;;;;;;;;;4989083;28;19968;-45
2022/07/27 11:29:34;;;;;;;;;;;;;;;;;;5001740;28;19917;-44
2022/07/27 11:32:00;;;;;;;;;;;;;;;;;;5007355;28;19921;-42
2022/07/27 11:34:27;;;;;;;;;;;;;;;;;;4997907;28;19937;-42
2022/07/27 11:36:53;;;;;;;;;;;;;;;;;;4994512;28;19917;-44
2022/07/27 11:39:19;;;;;;;;;;;;;;;;;;4998709;28;19933;-43
2022/07/27 11:41:45;;;;;;;;;;;;;;;;;;4988394;28;19910;-44
2022/07/27 11:44:12;;;;;;;;;;;;;;;;;;4999710;28;19964;-43
2022/07/27 11:46:41;;;;;;;;;;;;;;;;;;5004786;28;19924;-44
2022/07/27 11:49:07;;;;;;;;;;;;;;;;;;5000181;28;19913;-43
2022/07/27 11:51:34;;;;;;;;;;;;;;;;;;5003948;28;20284;-44
2022/07/27 11:54:00;;;;;;;;;;;;;;;;;;4991135;28;20326;-43
2022/07/27 11:56:26;;;;;;;;;;;;;;;;;;4994618;28;20012;-43
2022/07/27 11:58:52;;;;;;;;;;;;;;;;;;4990877;28;20115;-44
2022/07/27 12:01:18;;;;;;;;;;;;;;;;;;4998282;28;20020;-43
2022/07/27 12:03:43;;;;;;;;;;;;;;;;;;5005436;28;19917;-47
2022/07/27 12:06:09;;;;;;;;;;;;;;;;;;5000846;28;19917;-45
2022/07/27 12:08:35;;;;;;;;;;;;;;;;;;4990156;28;20386;-45
2022/07/27 12:11:01;;;;;;;;;;;;;;;;;;4992853;28;20460;-45
2022/07/27 12:13:27;;;;;;;;;;;;;;;;;;5007214;28;19917;-44
2022/07/27 12:15:53;;;;;;;;;;;;;;;;;;5000897;28;20015;-43
2022/07/27 12:18:19;;;;;;;;;;;;;;;;;;4995001;28;20164;-42
2022/07/27 12:20:47;;;;;;;;;;;;;;;;;;4997834;28;20008;-46
2022/07/27 12:23:13;;;;;;;;;;;;;;;;;;4990602;28;19918;-44
2022/07/27 12:25:40;;;;;;;;;;;;;;;;;;4986792;28;19910;-43
2022/07/27 12:28:06;;;;;;;;;;;;;;;;;;4987387;28;19913;-44
2022/07/27 12:30:32;;;;;;;;;;;;;;;;;;4987292;28;20040;-44
2022/07/27 12:32:58;;;;;;;;;;;;;;;;;;4987398;28;19917;-43
2022/07/27 12:35:24;;;;;;;;;;;;;;;;;;4987692;28;20311;-44
2022/07/27 12:37:51;;;;;;;;;;;;;;;;;;4985853;28;19910;-45
2022/07/27 12:40:17;;;;;;;;;;;;;;;;;;4987873;28;20522;-43
2022/07/27 12:42:43;;;;;;;;;;;;;;;;;;4987218;28;20036;-44
2022/07/27 12:45:08;;;;;;;;;;;;;;;;;;4987301;28;19914;-43
2022/07/27 12:47:41;;;;;;;;;;;;;;;;;;4986246;28;20317;-44
2022/07/27 12:50:08;;;;;;;;;;;;;;;;;;4987164;28;20302;-44
2022/07/27 12:52:33;;;;;;;;;;;;;;;;;;4986510;28;20425;-43
2022/07/27 12:54:59;;;;;;;;;;;;;;;;;;4987262;28;19909;-44
2022/07/27 12:57:25;;;;;;;;;;;;;;;;;;4987300;28;19917;-44
2022/07/27 12:59:52;;;;;;;;;;;;;;;;;;4986659;28;20391;-46
2022/07/27 13:02:18;;;;;;;;;;;;;;;;;;4987825;28;19921;-43
2022/07/27 13:04:44;;;;;;;;;;;;;;;;;;4987182;28;19910;-44
2022/07/27 13:07:10;;;;;;;;;;;;;;;;;;4986970;28;19909;-43
2022/07/27 13:09:38;;;;;;;;;;;;;;;;;;4986837;28;20092;-43
2022/07/27 13:12:05;;;;;;;;;;;;;;;;;;4987135;28;19964;-44
2022/07/27 13:14:31;;;;;;;;;;;;;;;;;;4986880;28;19910;-43
2022/07/27 13:16:57;;;;;;;;;;;;;;;;;;4986985;28;20485;-44
2022/07/27 13:19:23;;;;;;;;;;;;;;;;;;4986700;28;19913;-44
2022/07/27 13:21:49;;;;;;;;;;;;;;;;;;4986817;28;19956;-43
2022/07/27 13:24:15;;;;;;;;;;;;;;;;;;4987234;28;19917;-44
2022/07/27 13:26:43;;;;;;;;;;;;;;;;;;4986603;28;19956;-45
2022/07/27 13:29:09;;;;;;;;;;;;;;;;;;4986370;28;19921;-44
2022/07/27 13:31:35;;;;;;;;;;;;;;;;;;4986416;28;19921;-45
2022/07/27 13:34:02;;;;;;;;;;;;;;;;;;4986556;28;20299;-46
2022/07/27 13:36:29;;;;;;;;;;;;;;;;;;4987011;28;19953;-44
2022/07/27 13:38:56;;;;;;;;;;;;;;;;;;4985808;28;20402;-44
2022/07/27 13:41:23;;;;;;;;;;;;;;;;;;4986453;28;19921;-43
2022/07/27 13:43:49;;;;;;;;;;;;;;;;;;4986616;28;19948;-43
2022/07/27 13:46:16;;;;;;;;;;;;;;;;;;4987082;28;19953;-44
2022/07/27 13:48:42;;;;;;;;;;;;;;;;;;4985942;28;19913;-44
2022/07/27 13:51:08;;;;;;;;;;;;;;;;;;4986195;28;19918;-43
2022/07/27 13:53:34;;;;;;;;;;;;;;;;;;4985837;28;20314;-43
2022/07/27 13:56:01;;;;;;;;;;;;;;;;;;4986062;28;19910;-44
2022/07/27 13:58:27;;;;;;;;;;;;;;;;;;4985979;28;19921;-46
2022/07/27 14:00:53;;;;;;;;;;;;;;;;;;4986379;28;19914;-43
2022/07/27 14:03:20;;;;;;;;;;;;;;;;;;4986497;28;20341;-43
2022/07/27 14:05:45;;;;;;;;;;;;;;;;;;4986765;28;20406;-43
2022/07/27 14:08:13;;;;;;;;;;;;;;;;;;4985859;28;19917;-43
2022/07/27 14:10:40;;;;;;;;;;;;;;;;;;4986060;28;20405;-44
2022/07/27 14:13:07;;;;;;;;;;;;;;;;;;4986097;28;19910;-44
2022/07/27 14:15:33;;;;;;;;;;;;;;;;;;4985791;28;19941;-43
2022/07/27 14:18:00;;;;;;;;;;;;;;;;;;4986008;28;20007;-44
2022/07/27 14:20:26;;;;;;;;;;;;;;;;;;4986115;28;19918;-44
2022/07/27 14:22:52;;;;;;;;;;;;;;;;;;4985728;28;20366;-45
2022/07/27 14:25:19;;;;;;;;;;;;;;;;;;4986158;28;19922;-44
2022/07/27 14:27:45;;;;;;;;;;;;;;;;;;4986186;28;19992;-44
2022/07/27 14:30:10;;;;;;;;;;;;;;;;;;4985908;28;20009;-44
2022/07/27 14:32:36;;;;;;;;;;;;;;;;;;4985834;28;19914;-44
2022/07/27 14:35:03;;;;;;;;;;;;;;;;;;4985820;28;19921;-43
2022/07/27 14:37:29;;;;;;;;;;;;;;;;;;4985846;28;19936;-44
2022/07/27 14:39:55;;;;;;;;;;;;;;;;;;4985297;28;20382;-44
2022/07/27 14:42:22;;;;;;;;;;;;;;;;;;4985717;28;19910;-43
2022/07/27 14:44:50;;;;;;;;;;;;;;;;;;4986217;28;19997;-44
2022/07/27 14:47:16;;;;;;;;;;;;;;;;;;4986372;28;19910;-45
2022/07/27 14:49:42;;;;;;;;;;;;;;;;;;4985718;28;20291;-44
2022/07/27 14:52:12;;;;;;;;;;;;;;;;;;4985662;28;20034;-43
2022/07/27 14:54:38;;;;;;;;;;;;;;;;;;4985350;28;20330;-44
2022/07/27 14:57:04;;;;;;;;;;;;;;;;;;4985663;28;20001;-43
2022/07/27 14:59:30;;;;;;;;;;;;;;;;;;4985535;28;19913;-46
2022/07/27 15:01:56;;;;;;;;;;;;;;;;;;4985801;28;19917;-44
2022/07/27 15:04:22;;;;;;;;;;;;;;;;;;4985767;28;19910;-43
2022/07/27 15:06:47;;;;;;;;;;;;;;;;;;4985949;28;20315;-44
2022/07/27 15:09:14;;;;;;;;;;;;;;;;;;4985229;28;19910;-44
2022/07/27 15:11:39;;;;;;;;;;;;;;;;;;5002352;28;20353;-43
2022/07/27 15:14:05;;;;;;;;;;;;;;;;;;4990462;28;19917;-44
2022/07/27 15:16:31;;;;;;;;;;;;;;;;;;4994727;28;19968;-45
2022/07/27 15:18:57;;;;;;;;;;;;;;;;;;5009832;28;20004;-45
2022/07/27 15:21:24;;;;;;;;;;;;;;;;;;5002771;28;20410;-43
2022/07/27 15:23:50;;;;;;;;;;;;;;;;;;4992051;28;19963;-44
2022/07/27 15:26:16;;;;;;;;;;;;;;;;;;4991576;28;20001;-44
2022/07/27 15:28:42;;;;;;;;;;;;;;;;;;5007025;28;19917;-44
2022/07/27 15:31:09;;;;;;;;;;;;;;;;;;5007747;28;19922;-43
2022/07/27 15:33:35;;;;;;;;;;;;;;;;;;5008513;28;19913;-44
2022/07/27 15:36:01;;;;;;;;;;;;;;;;;;5009047;28;19917;-43
2022/07/27 15:38:27;;;;;;;;;;;;;;;;;;4990568;28;19953;-44
2022/07/27 15:40:52;;;;;;;;;;;;;;;;;;4989261;28;20310;-43
2022/07/27 15:43:18;;;;;;;;;;;;;;;;;;4990255;28;19916;-44
2022/07/27 15:45:46;;;;;;;;;;;;;;;;;;4989406;28;20421;-44
2022/07/27 15:48:13;;;;;;;;;;;;;;;;;;4989581;28;19925;-46
2022/07/27 15:50:40;;;;;;;;;;;;;;;;;;4989047;28;20790;-43
2022/07/27 15:53:07;;;;;;;;;;;;;;;;;;4989269;28;19910;-43
2022/07/27 15:55:33;;;;;;;;;;;;;;;;;;4988867;28;19913;-44
2022/07/27 15:58:00;;;;;;;;;;;;;;;;;;5006970;28;20271;-44
2022/07/27 16:00:26;;;;;;;;;;;;;;;;;;5008750;28;19917;-45
2022/07/27 16:02:52;;;;;;;;;;;;;;;;;;4996429;28;19924;-43
2022/07/27 16:05:19;;;;;;;;;;;;;;;;;;5004705;28;20456;-43
2022/07/27 16:07:45;;;;;;;;;;;;;;;;;;5007183;28;19913;-45
2022/07/27 16:10:11;;;;;;;;;;;;;;;;;;5003893;28;19917;-43
2022/07/27 16:12:37;;;;;;;;;;;;;;;;;;4998373;28;19918;-44
2022/07/27 16:15:03;;;;;;;;;;;;;;;;;;4987813;28;19909;-47
2022/07/27 16:17:29;;;;;;;;;;;;;;;;;;5000355;28;20028;-46
2022/07/27 16:19:56;;;;;;;;;;;;;;;;;;5007115;28;19913;-44
2022/07/27 16:22:21;;;;;;;;;;;;;;;;;;5006750;28;19910;-45
2022/07/27 16:24:47;;;;;;;;;;;;;;;;;;5007817;28;19913;-45
2022/07/27 16:27:13;;;;;;;;;;;;;;;;;;5002987;28;19921;-47
2022/07/27 16:29:39;;;;;;;;;;;;;;;;;;4996662;28;19917;-46
2022/07/27 16:32:05;;;;;;;;;;;;;;;;;;5002684;28;20450;-45
2022/07/27 16:34:31;;;;;;;;;;;;;;;;;;5003784;28;20016;-44
2022/07/27 16:36:57;;;;;;;;;;;;;;;;;;5001255;28;19955;-47
2022/07/27 16:39:23;;;;;;;;;;;;;;;;;;4997705;28;19918;-44
2022/07/27 16:41:52;;;;;;;;;;;;;;;;;;4997727;28;19913;-44